createdAt,value
2017-08-15T00:00:02.234Z,93.7
2017-08-15T00:00:05.236Z,93.7
2017-08-15T00:00:08.273Z,93.6
2017-08-15T00:00:11.642Z,93.6
2017-08-15T00:00:14.672Z,93.6
2017-08-15T00:00:18.041Z,93.6
2017-08-15T00:00:21.406Z,93.5
2017-08-15T00:00:24.772Z,93.6
2017-08-15T00:00:27.777Z,93.6
2017-08-15T00:00:31.145Z,93.6
2017-08-15T00:00:34.508Z,93.6
2017-08-15T00:00:37.879Z,93.6
2017-08-15T00:00:41.248Z,93.6
2017-08-15T00:00:43.926Z,93.6
2017-08-15T00:00:47.283Z,93.6
2017-08-15T00:00:50.644Z,93.5
2017-08-15T00:00:53.672Z,93.5
2017-08-15T00:00:57.039Z,93.5
2017-08-15T00:01:00.042Z,93.5
2017-08-15T00:01:03.407Z,93.5
2017-08-15T00:01:06.424Z,93.4
2017-08-15T00:01:09.787Z,93.5
2017-08-15T00:01:13.159Z,93.5
2017-08-15T00:01:16.165Z,93.6
2017-08-15T00:01:19.533Z,93.6
2017-08-15T00:01:22.898Z,93.5
2017-08-15T00:01:26.261Z,93.5
2017-08-15T00:01:29.623Z,93.5
2017-08-15T00:01:33.005Z,93.5
2017-08-15T00:01:36.365Z,93.5
2017-08-15T00:01:39.732Z,93.5
2017-08-15T00:01:43.092Z,93.5
2017-08-15T00:01:45.768Z,93.4
2017-08-15T00:01:49.133Z,93.4
2017-08-15T00:01:52.498Z,93.5
2017-08-15T00:01:55.512Z,93.5
2017-08-15T00:01:58.872Z,93.5
2017-08-15T00:02:02.243Z,93.5
2017-08-15T00:02:05.615Z,93.5
2017-08-15T00:02:26.772Z,93.5
2017-08-15T00:02:29.783Z,93.4
2017-08-15T00:02:32.783Z,93.4
2017-08-15T00:02:35.806Z,93.4
2017-08-15T00:02:39.172Z,93.5
2017-08-15T00:02:42.273Z,93.6
2017-08-15T00:02:45.312Z,93.6
2017-08-15T00:02:48.333Z,93.5
2017-08-15T00:02:51.342Z,93.5
2017-08-15T00:02:54.702Z,93.5
2017-08-15T00:02:57.715Z,93.5
2017-08-15T00:03:01.079Z,93.5
2017-08-15T00:03:04.085Z,93.5
2017-08-15T00:03:07.112Z,93.5
2017-08-15T00:03:10.143Z,93.5
2017-08-15T00:03:13.501Z,93.5
2017-08-15T00:03:16.863Z,93.5
2017-08-15T00:03:20.222Z,93.5
2017-08-15T00:03:23.580Z,93.6
2017-08-15T00:03:26.938Z,93.5
2017-08-15T00:03:29.943Z,93.5
2017-08-15T00:03:33.305Z,93.6
2017-08-15T00:03:36.672Z,93.5
2017-08-15T00:03:40.035Z,93.5
2017-08-15T00:03:43.066Z,93.5
2017-08-15T00:03:46.422Z,93.5
2017-08-15T00:03:49.458Z,93.5
2017-08-15T00:03:52.468Z,93.5
2017-08-15T00:03:55.482Z,93.5
2017-08-15T00:03:58.840Z,93.5
2017-08-15T00:04:01.868Z,93.5
2017-08-15T00:04:04.873Z,93.6
2017-08-15T00:04:07.912Z,93.6
2017-08-15T00:04:10.936Z,93.6
2017-08-15T00:04:13.966Z,93.6
2017-08-15T00:04:17.341Z,93.6
2017-08-15T00:04:20.352Z,93.6
2017-08-15T00:04:23.714Z,93.6
2017-08-15T00:04:26.740Z,93.6
2017-08-15T00:04:30.108Z,93.5
2017-08-15T00:04:33.116Z,93.5
2017-08-15T00:04:36.485Z,93.5
2017-08-15T00:04:39.493Z,93.5
2017-08-15T00:04:42.532Z,93.5
2017-08-15T00:04:45.541Z,93.5
2017-08-15T00:04:48.572Z,93.5
2017-08-15T00:04:51.585Z,93.5
2017-08-15T00:04:54.942Z,93.5
2017-08-15T00:04:57.974Z,93.5
2017-08-15T00:05:00.993Z,93.5
2017-08-15T00:05:04.024Z,93.6
2017-08-15T00:05:07.382Z,93.6
2017-08-15T00:05:10.744Z,93.6
2017-08-15T00:05:14.124Z,93.6
2017-08-15T00:05:17.488Z,93.6
2017-08-15T00:05:20.158Z,93.5
2017-08-15T00:05:23.187Z,93.5
2017-08-15T00:05:26.545Z,93.5
2017-08-15T00:05:29.912Z,93.6
2017-08-15T00:05:32.581Z,93.6
2017-08-15T00:05:35.593Z,93.6
2017-08-15T00:05:38.958Z,93.6
2017-08-15T00:05:42.329Z,93.6
2017-08-15T00:05:45.365Z,93.6
2017-08-15T00:05:48.372Z,93.6
2017-08-15T00:05:51.733Z,93.6
2017-08-15T00:05:54.745Z,93.6
2017-08-15T00:05:58.108Z,93.6
2017-08-15T00:06:01.478Z,93.7
2017-08-15T00:06:04.841Z,93.6
2017-08-15T00:06:08.198Z,93.5
2017-08-15T00:06:11.222Z,93.5
2017-08-15T00:06:14.256Z,93.5
2017-08-15T00:06:17.272Z,93.5
2017-08-15T00:06:20.632Z,93.5
2017-08-15T00:06:23.641Z,93.6
2017-08-15T00:06:27.003Z,93.6
2017-08-15T00:06:30.360Z,93.7
2017-08-15T00:06:33.387Z,93.6
2017-08-15T00:06:36.752Z,93.6
2017-08-15T00:06:40.114Z,93.6
2017-08-15T00:06:43.479Z,93.7
2017-08-15T00:06:46.839Z,93.6
2017-08-15T00:06:50.203Z,93.6
2017-08-15T00:06:53.568Z,93.6
2017-08-15T00:06:56.932Z,93.7
2017-08-15T00:06:59.934Z,93.7
2017-08-15T00:07:03.294Z,93.7
2017-08-15T00:07:06.656Z,93.7
2017-08-15T00:07:10.019Z,93.7
2017-08-15T00:07:13.381Z,93.6
2017-08-15T00:07:16.752Z,93.6
2017-08-15T00:07:20.113Z,93.7
2017-08-15T00:07:23.480Z,93.7
2017-08-15T00:07:26.485Z,93.7
2017-08-15T00:07:29.856Z,93.7
2017-08-15T00:07:32.866Z,93.6
2017-08-15T00:07:36.236Z,93.6
2017-08-15T00:07:39.599Z,93.6
2017-08-15T00:07:42.961Z,93.6
2017-08-15T00:07:46.332Z,93.7
2017-08-15T00:07:49.695Z,93.7
2017-08-15T00:07:53.067Z,93.7
2017-08-15T00:07:56.434Z,93.8
2017-08-15T00:07:59.798Z,93.8
2017-08-15T00:08:03.164Z,93.8
2017-08-15T00:08:06.534Z,93.8
2017-08-15T00:08:09.543Z,93.8
2017-08-15T00:08:12.902Z,93.8
2017-08-15T00:08:15.904Z,93.8
2017-08-15T00:08:18.932Z,93.8
2017-08-15T00:08:21.957Z,93.8
2017-08-15T00:08:25.332Z,93.8
2017-08-15T00:08:28.341Z,93.8
2017-08-15T00:08:31.702Z,93.8
2017-08-15T00:08:35.064Z,93.8
2017-08-15T00:08:38.425Z,93.8
2017-08-15T00:08:41.432Z,93.7
2017-08-15T00:08:44.801Z,93.7
2017-08-15T00:08:47.805Z,93.7
2017-08-15T00:08:50.813Z,93.7
2017-08-15T00:08:54.172Z,93.7
2017-08-15T00:08:57.178Z,93.7
2017-08-15T00:09:00.207Z,93.6
2017-08-15T00:09:03.573Z,93.6
2017-08-15T00:09:06.939Z,93.6
2017-08-15T00:09:09.960Z,93.6
2017-08-15T00:09:12.987Z,93.6
2017-08-15T00:09:16.343Z,93.7
2017-08-15T00:09:19.372Z,93.6
2017-08-15T00:09:22.735Z,93.6
2017-08-15T00:09:26.101Z,93.6
2017-08-15T00:09:29.464Z,93.5
2017-08-15T00:09:32.824Z,93.6
2017-08-15T00:09:36.182Z,93.6
2017-08-15T00:09:39.544Z,93.6
2017-08-15T00:09:42.573Z,93.6
2017-08-15T00:09:45.947Z,93.5
2017-08-15T00:09:48.954Z,93.6
2017-08-15T00:09:51.954Z,93.6
2017-08-15T00:09:54.631Z,93.6
2017-08-15T00:09:57.997Z,93.6
2017-08-15T00:10:01.621Z,93.6
2017-08-15T00:10:04.639Z,93.6
2017-08-15T00:10:08.005Z,93.5
2017-08-15T00:10:11.366Z,93.5
2017-08-15T00:10:14.722Z,93.5
2017-08-15T00:10:17.765Z,93.5
2017-08-15T00:10:20.442Z,93.5
2017-08-15T00:10:23.804Z,93.5
2017-08-15T00:10:26.806Z,93.5
2017-08-15T00:10:30.166Z,93.6
2017-08-15T00:10:33.191Z,93.6
2017-08-15T00:10:36.232Z,93.6
2017-08-15T00:10:39.242Z,93.5
2017-08-15T00:10:42.252Z,93.5
2017-08-15T00:10:45.262Z,93.6
2017-08-15T00:10:48.265Z,93.6
2017-08-15T00:10:51.624Z,93.6
2017-08-15T00:10:54.985Z,93.6
2017-08-15T00:10:57.993Z,93.6
2017-08-15T00:11:01.353Z,93.6
2017-08-15T00:11:04.714Z,93.7
2017-08-15T00:11:07.741Z,93.6
2017-08-15T00:11:10.777Z,93.6
2017-08-15T00:11:13.786Z,93.7
2017-08-15T00:11:17.152Z,93.7
2017-08-15T00:11:20.525Z,93.7
2017-08-15T00:11:23.893Z,93.7
2017-08-15T00:11:27.252Z,93.7
2017-08-15T00:11:30.608Z,93.7
2017-08-15T00:11:33.642Z,93.7
2017-08-15T00:11:37.008Z,93.8
2017-08-15T00:11:40.372Z,93.7
2017-08-15T00:11:43.398Z,93.8
2017-08-15T00:11:46.069Z,93.7
2017-08-15T00:11:49.431Z,93.7
2017-08-15T00:11:52.436Z,93.7
2017-08-15T00:11:55.440Z,93.8
2017-08-15T00:11:58.478Z,93.8
2017-08-15T00:12:01.511Z,93.9
2017-08-15T00:12:04.614Z,93.9
2017-08-15T00:12:07.975Z,93.8
2017-08-15T00:12:11.332Z,93.8
2017-08-15T00:12:14.360Z,93.8
2017-08-15T00:12:17.743Z,93.8
2017-08-15T00:12:20.746Z,93.8
2017-08-15T00:12:23.754Z,93.8
2017-08-15T00:12:26.769Z,93.8
2017-08-15T00:12:30.132Z,93.8
2017-08-15T00:12:32.802Z,93.8
2017-08-15T00:12:35.833Z,93.8
2017-08-15T00:12:38.866Z,93.7
2017-08-15T00:12:42.245Z,93.7
2017-08-15T00:12:45.638Z,93.7
2017-08-15T00:12:48.651Z,93.7
2017-08-15T00:12:52.055Z,93.7
2017-08-15T00:12:55.443Z,93.7
2017-08-15T00:12:58.453Z,93.7
2017-08-15T00:13:01.816Z,93.8
2017-08-15T00:13:05.186Z,93.7
2017-08-15T00:13:08.552Z,93.8
2017-08-15T00:13:11.563Z,93.7
2017-08-15T00:13:14.926Z,93.7
2017-08-15T00:13:18.291Z,93.7
2017-08-15T00:13:21.655Z,93.8
2017-08-15T00:13:24.681Z,93.8
2017-08-15T00:13:28.040Z,93.8
2017-08-15T00:13:31.072Z,93.8
2017-08-15T00:13:34.442Z,93.8
2017-08-15T00:13:37.454Z,93.8
2017-08-15T00:13:40.463Z,93.8
2017-08-15T00:13:43.473Z,93.8
2017-08-15T00:13:46.852Z,93.8
2017-08-15T00:13:50.212Z,93.8
2017-08-15T00:13:53.574Z,93.8
2017-08-15T00:13:56.603Z,93.9
2017-08-15T00:13:59.966Z,93.9
2017-08-15T00:14:02.990Z,93.8
2017-08-15T00:14:06.353Z,93.8
2017-08-15T00:14:09.379Z,93.8
2017-08-15T00:14:12.740Z,93.8
2017-08-15T00:14:15.779Z,93.8
2017-08-15T00:14:19.138Z,93.8
2017-08-15T00:14:22.506Z,93.8
2017-08-15T00:14:25.533Z,93.8
2017-08-15T00:14:28.900Z,93.9
2017-08-15T00:14:32.258Z,93.9
2017-08-15T00:14:35.293Z,93.9
2017-08-15T00:14:38.319Z,93.9
2017-08-15T00:14:41.680Z,93.9
2017-08-15T00:14:45.047Z,93.9
2017-08-15T00:14:48.073Z,93.9
2017-08-15T00:14:51.099Z,93.9
2017-08-15T00:14:54.459Z,93.9
2017-08-15T00:14:57.480Z,93.9
2017-08-15T00:15:00.511Z,93.9
2017-08-15T00:15:03.904Z,93.9
2017-08-15T00:15:06.939Z,93.9
2017-08-15T00:15:10.296Z,93.9
2017-08-15T00:15:13.324Z,93.9
2017-08-15T00:15:16.684Z,93.9
2017-08-15T00:15:20.074Z,93.9
2017-08-15T00:15:23.439Z,93.8
2017-08-15T00:15:26.447Z,93.8
2017-08-15T00:15:29.806Z,93.8
2017-08-15T00:15:33.201Z,93.8
2017-08-15T00:15:36.572Z,93.8
2017-08-15T00:15:39.932Z,93.8
2017-08-15T00:15:43.293Z,93.9
2017-08-15T00:15:46.660Z,94
2017-08-15T00:15:50.044Z,94.1
2017-08-15T00:15:53.052Z,94
2017-08-15T00:15:56.412Z,93.8
2017-08-15T00:15:59.782Z,93.8
2017-08-15T00:16:03.147Z,93.8
2017-08-15T00:16:06.508Z,93.8
2017-08-15T00:16:09.874Z,93.8
2017-08-15T00:16:13.240Z,93.9
2017-08-15T00:16:16.603Z,93.9
2017-08-15T00:16:19.610Z,93.9
2017-08-15T00:16:22.980Z,93.9
2017-08-15T00:16:26.342Z,93.9
2017-08-15T00:16:29.700Z,93.8
2017-08-15T00:16:33.061Z,93.8
2017-08-15T00:16:36.072Z,93.8
2017-08-15T00:16:39.445Z,93.9
2017-08-15T00:16:42.452Z,93.8
2017-08-15T00:16:45.822Z,93.9
2017-08-15T00:16:49.179Z,94
2017-08-15T00:16:51.851Z,94
2017-08-15T00:16:54.859Z,94
2017-08-15T00:16:58.225Z,94
2017-08-15T00:17:01.592Z,94
2017-08-15T00:17:04.600Z,94
2017-08-15T00:17:07.272Z,93.9
2017-08-15T00:17:10.279Z,93.9
2017-08-15T00:17:13.636Z,93.9
2017-08-15T00:17:16.664Z,93.8
2017-08-15T00:17:19.678Z,93.8
2017-08-15T00:17:22.359Z,93.8
2017-08-15T00:17:25.380Z,93.8
2017-08-15T00:17:28.744Z,93.8
2017-08-15T00:17:31.752Z,93.9
2017-08-15T00:17:34.778Z,93.9
2017-08-15T00:17:38.138Z,93.8
2017-08-15T00:17:41.499Z,93.9
2017-08-15T00:17:44.512Z,93.8
2017-08-15T00:17:47.519Z,93.8
2017-08-15T00:17:50.899Z,93.9
2017-08-15T00:17:54.265Z,93.9
2017-08-15T00:17:56.952Z,93.9
2017-08-15T00:17:59.957Z,93.9
2017-08-15T00:18:02.626Z,93.9
2017-08-15T00:18:05.656Z,94
2017-08-15T00:18:08.665Z,94
2017-08-15T00:18:12.019Z,93.9
2017-08-15T00:18:15.499Z,93.8
2017-08-15T00:18:18.504Z,93.8
2017-08-15T00:18:21.558Z,93.8
2017-08-15T00:18:24.572Z,93.8
2017-08-15T00:18:27.932Z,93.8
2017-08-15T00:18:31.302Z,93.8
2017-08-15T00:18:34.663Z,93.9
2017-08-15T00:18:37.672Z,93.9
2017-08-15T00:18:40.704Z,93.9
2017-08-15T00:18:43.748Z,93.8
2017-08-15T00:18:47.112Z,93.8
2017-08-15T00:18:50.479Z,93.8
2017-08-15T00:18:53.839Z,93.8
2017-08-15T00:18:57.226Z,93.8
2017-08-15T00:19:00.590Z,93.8
2017-08-15T00:19:03.957Z,93.8
2017-08-15T00:19:07.314Z,93.8
2017-08-15T00:19:10.353Z,93.8
2017-08-15T00:19:13.362Z,93.8
2017-08-15T00:19:16.721Z,93.8
2017-08-15T00:19:20.082Z,93.8
2017-08-15T00:19:23.451Z,93.8
2017-08-15T00:19:26.813Z,93.8
2017-08-15T00:19:30.179Z,93.8
2017-08-15T00:19:33.543Z,93.9
2017-08-15T00:19:36.901Z,93.9
2017-08-15T00:19:40.261Z,93.9
2017-08-15T00:19:43.621Z,93.9
2017-08-15T00:19:46.991Z,93.8
2017-08-15T00:19:50.356Z,93.8
2017-08-15T00:19:53.719Z,93.9
2017-08-15T00:19:57.084Z,93.9
2017-08-15T00:20:00.459Z,93.9
2017-08-15T00:20:04.082Z,94
2017-08-15T00:20:06.753Z,94
2017-08-15T00:20:10.114Z,93.9
2017-08-15T00:20:13.123Z,93.9
2017-08-15T00:20:16.132Z,93.9
2017-08-15T00:20:19.498Z,93.9
2017-08-15T00:20:22.867Z,93.9
2017-08-15T00:20:26.228Z,93.9
2017-08-15T00:20:29.252Z,93.9
2017-08-15T00:20:32.281Z,93.9
2017-08-15T00:20:35.654Z,93.9
2017-08-15T00:20:39.017Z,93.9
2017-08-15T00:20:41.694Z,93.9
2017-08-15T00:20:44.724Z,93.9
2017-08-15T00:20:47.731Z,94
2017-08-15T00:20:51.092Z,94
2017-08-15T00:20:54.452Z,94
2017-08-15T00:20:57.194Z,94
2017-08-15T00:21:00.241Z,94
2017-08-15T00:21:03.275Z,94
2017-08-15T00:21:06.284Z,94.1
2017-08-15T00:21:09.644Z,94.1
2017-08-15T00:21:13.007Z,94
2017-08-15T00:21:16.372Z,94
2017-08-15T00:21:19.393Z,94
2017-08-15T00:21:22.405Z,94
2017-08-15T00:21:25.434Z,94
2017-08-15T00:21:28.794Z,94
2017-08-15T00:21:32.159Z,94
2017-08-15T00:21:35.522Z,93.9
2017-08-15T00:21:38.879Z,93.9
2017-08-15T00:21:41.974Z,93.9
2017-08-15T00:21:45.369Z,93.8
2017-08-15T00:21:48.738Z,93.8
2017-08-15T00:21:51.763Z,93.9
2017-08-15T00:21:55.126Z,93.9
2017-08-15T00:21:58.133Z,93.8
2017-08-15T00:22:01.500Z,93.8
2017-08-15T00:22:04.876Z,93.7
2017-08-15T00:22:08.238Z,93.8
2017-08-15T00:22:11.272Z,93.8
2017-08-15T00:22:14.626Z,93.7
2017-08-15T00:22:17.992Z,93.7
2017-08-15T00:22:21.005Z,93.7
2017-08-15T00:22:24.016Z,93.8
2017-08-15T00:22:27.024Z,93.7
2017-08-15T00:22:30.031Z,93.7
2017-08-15T00:22:33.046Z,93.6
2017-08-15T00:22:36.052Z,93.7
2017-08-15T00:22:39.060Z,93.7
2017-08-15T00:22:42.423Z,93.7
2017-08-15T00:22:45.456Z,93.7
2017-08-15T00:22:48.818Z,93.7
2017-08-15T00:22:51.841Z,93.8
2017-08-15T00:22:55.197Z,93.7
2017-08-15T00:22:58.555Z,93.8
2017-08-15T00:23:01.599Z,93.8
2017-08-15T00:23:04.961Z,93.8
2017-08-15T00:23:08.323Z,93.8
2017-08-15T00:23:10.993Z,93.8
2017-08-15T00:23:14.370Z,93.8
2017-08-15T00:23:17.729Z,93.8
2017-08-15T00:23:21.094Z,93.9
2017-08-15T00:23:24.126Z,93.9
2017-08-15T00:23:27.492Z,93.9
2017-08-15T00:23:30.171Z,93.8
2017-08-15T00:23:33.176Z,93.8
2017-08-15T00:23:36.181Z,93.8
2017-08-15T00:23:39.553Z,93.8
2017-08-15T00:23:42.920Z,93.8
2017-08-15T00:23:46.283Z,93.8
2017-08-15T00:23:49.292Z,93.8
2017-08-15T00:23:52.655Z,93.9
2017-08-15T00:23:56.016Z,93.9
2017-08-15T00:23:59.051Z,93.9
2017-08-15T00:24:02.079Z,93.8
2017-08-15T00:24:05.444Z,93.8
2017-08-15T00:24:08.805Z,93.7
2017-08-15T00:24:11.484Z,93.8
2017-08-15T00:24:14.513Z,93.8
2017-08-15T00:24:17.520Z,93.8
2017-08-15T00:24:20.880Z,93.7
2017-08-15T00:24:24.239Z,93.7
2017-08-15T00:24:27.249Z,93.7
2017-08-15T00:24:30.620Z,93.6
2017-08-15T00:24:33.984Z,93.6
2017-08-15T00:24:37.354Z,93.6
2017-08-15T00:24:40.732Z,93.6
2017-08-15T00:24:43.766Z,93.6
2017-08-15T00:24:47.123Z,93.5
2017-08-15T00:24:50.481Z,93.6
2017-08-15T00:24:53.514Z,93.6
2017-08-15T00:24:56.881Z,93.7
2017-08-15T00:24:59.888Z,93.7
2017-08-15T00:25:02.924Z,93.8
2017-08-15T00:25:06.283Z,93.8
2017-08-15T00:25:09.701Z,93.8
2017-08-15T00:25:12.705Z,93.8
2017-08-15T00:25:16.061Z,93.8
2017-08-15T00:25:19.432Z,93.8
2017-08-15T00:25:22.801Z,93.8
2017-08-15T00:25:26.159Z,93.8
2017-08-15T00:25:29.518Z,93.7
2017-08-15T00:25:32.522Z,93.7
2017-08-15T00:25:35.892Z,93.7
2017-08-15T00:25:38.633Z,93.8
2017-08-15T00:25:42.007Z,93.8
2017-08-15T00:25:45.012Z,93.8
2017-08-15T00:25:48.039Z,93.8
2017-08-15T00:25:51.095Z,93.8
2017-08-15T00:25:54.457Z,93.8
2017-08-15T00:25:57.487Z,93.9
2017-08-15T00:26:00.844Z,93.8
2017-08-15T00:26:04.204Z,93.8
2017-08-15T00:26:07.582Z,93.8
2017-08-15T00:26:10.938Z,93.8
2017-08-15T00:26:13.972Z,93.7
2017-08-15T00:26:17.332Z,93.7
2017-08-15T00:26:20.693Z,93.7
2017-08-15T00:26:24.058Z,93.8
2017-08-15T00:26:27.432Z,93.7
2017-08-15T00:26:30.802Z,93.7
2017-08-15T00:26:34.163Z,93.7
2017-08-15T00:26:37.533Z,93.7
2017-08-15T00:26:40.558Z,93.6
2017-08-15T00:26:43.922Z,93.6
2017-08-15T00:26:47.281Z,93.7
2017-08-15T00:26:50.639Z,93.7
2017-08-15T00:26:53.645Z,93.7
2017-08-15T00:26:56.320Z,93.7
2017-08-15T00:26:59.683Z,93.7
2017-08-15T00:27:03.059Z,93.7
2017-08-15T00:27:06.417Z,93.7
2017-08-15T00:27:09.777Z,93.6
2017-08-15T00:27:13.137Z,93.5
2017-08-15T00:27:16.500Z,93.5
2017-08-15T00:27:19.515Z,93.6
2017-08-15T00:27:22.880Z,93.5
2017-08-15T00:27:25.886Z,93.5
2017-08-15T00:27:29.246Z,93.5
2017-08-15T00:27:32.614Z,93.5
2017-08-15T00:27:35.624Z,93.5
2017-08-15T00:27:38.993Z,93.5
2017-08-15T00:27:42.356Z,93.5
2017-08-15T00:27:45.726Z,93.6
2017-08-15T00:27:49.095Z,93.6
2017-08-15T00:27:52.467Z,93.6
2017-08-15T00:27:55.834Z,93.6
2017-08-15T00:27:59.188Z,93.6
2017-08-15T00:28:02.217Z,93.7
2017-08-15T00:28:05.241Z,93.7
2017-08-15T00:28:08.613Z,93.7
2017-08-15T00:28:11.977Z,93.7
2017-08-15T00:28:14.981Z,93.7
2017-08-15T00:28:18.347Z,93.7
2017-08-15T00:28:21.350Z,93.7
2017-08-15T00:28:24.716Z,93.7
2017-08-15T00:28:28.093Z,93.8
2017-08-15T00:28:31.467Z,93.8
2017-08-15T00:28:34.832Z,93.8
2017-08-15T00:28:38.198Z,93.7
2017-08-15T00:28:40.872Z,93.7
2017-08-15T00:28:44.241Z,93.7
2017-08-15T00:28:47.604Z,93.6
2017-08-15T00:28:50.959Z,93.7
2017-08-15T00:28:54.319Z,93.7
2017-08-15T00:28:57.348Z,93.8
2017-08-15T00:29:00.378Z,93.8
2017-08-15T00:29:03.403Z,93.8
2017-08-15T00:29:06.775Z,93.7
2017-08-15T00:29:09.780Z,93.7
2017-08-15T00:29:12.813Z,93.7
2017-08-15T00:29:15.824Z,93.6
2017-08-15T00:29:18.832Z,93.6
2017-08-15T00:29:22.192Z,93.7
2017-08-15T00:29:25.551Z,93.7
2017-08-15T00:29:28.924Z,93.8
2017-08-15T00:29:31.961Z,93.8
2017-08-15T00:29:35.328Z,93.8
2017-08-15T00:29:38.687Z,93.8
2017-08-15T00:29:42.051Z,93.7
2017-08-15T00:29:45.416Z,93.8
2017-08-15T00:29:48.782Z,93.8
2017-08-15T00:29:52.143Z,93.8
2017-08-15T00:29:55.512Z,93.7
2017-08-15T00:29:58.880Z,93.7
2017-08-15T00:30:01.913Z,93.7
2017-08-15T00:30:05.194Z,93.8
2017-08-15T00:30:08.579Z,93.7
2017-08-15T00:30:11.940Z,93.7
2017-08-15T00:30:15.305Z,93.8
2017-08-15T00:30:18.896Z,93.8
2017-08-15T00:30:21.934Z,93.8
2017-08-15T00:30:25.301Z,93.8
2017-08-15T00:30:28.307Z,93.7
2017-08-15T00:30:31.669Z,93.7
2017-08-15T00:30:34.675Z,93.7
2017-08-15T00:30:38.039Z,93.7
2017-08-15T00:30:41.398Z,93.7
2017-08-15T00:30:44.431Z,93.7
2017-08-15T00:30:47.796Z,93.7
2017-08-15T00:30:50.812Z,93.8
2017-08-15T00:30:53.914Z,93.7
2017-08-15T00:30:57.278Z,93.7
2017-08-15T00:31:00.303Z,93.8
2017-08-15T00:31:03.688Z,93.8
2017-08-15T00:31:07.046Z,93.8
2017-08-15T00:31:10.408Z,93.8
2017-08-15T00:31:13.420Z,93.8
2017-08-15T00:31:16.783Z,93.8
2017-08-15T00:31:20.159Z,93.7
2017-08-15T00:31:23.175Z,93.7
2017-08-15T00:31:26.186Z,93.8
2017-08-15T00:31:29.554Z,93.7
2017-08-15T00:31:32.581Z,93.7
2017-08-15T00:31:35.947Z,93.7
2017-08-15T00:31:39.308Z,93.7
2017-08-15T00:31:42.313Z,93.6
2017-08-15T00:31:45.683Z,93.6
2017-08-15T00:31:48.690Z,93.7
2017-08-15T00:31:52.059Z,93.7
2017-08-15T00:31:55.424Z,93.6
2017-08-15T00:31:58.428Z,93.6
2017-08-15T00:32:01.790Z,93.7
2017-08-15T00:32:04.801Z,93.7
2017-08-15T00:32:07.812Z,93.8
2017-08-15T00:32:11.179Z,93.8
2017-08-15T00:32:14.192Z,93.8
2017-08-15T00:32:17.256Z,93.8
2017-08-15T00:32:20.619Z,93.7
2017-08-15T00:32:23.626Z,93.8
2017-08-15T00:32:26.987Z,93.7
2017-08-15T00:32:30.360Z,93.6
2017-08-15T00:32:33.726Z,93.6
2017-08-15T00:32:37.087Z,93.6
2017-08-15T00:32:40.452Z,93.6
2017-08-15T00:32:43.817Z,93.6
2017-08-15T00:32:47.177Z,93.6
2017-08-15T00:32:50.212Z,93.5
2017-08-15T00:32:53.217Z,93.5
2017-08-15T00:32:56.577Z,93.5
2017-08-15T00:32:59.936Z,93.5
2017-08-15T00:33:02.971Z,93.5
2017-08-15T00:33:06.332Z,93.5
2017-08-15T00:33:09.366Z,93.5
2017-08-15T00:33:12.373Z,93.5
2017-08-15T00:33:15.739Z,93.5
2017-08-15T00:33:18.741Z,93.5
2017-08-15T00:33:22.107Z,93.5
2017-08-15T00:33:25.466Z,93.5
2017-08-15T00:33:28.475Z,93.5
2017-08-15T00:33:31.839Z,93.6
2017-08-15T00:33:35.200Z,93.6
2017-08-15T00:33:38.572Z,93.6
2017-08-15T00:33:41.933Z,93.6
2017-08-15T00:33:45.295Z,93.6
2017-08-15T00:33:48.656Z,93.6
2017-08-15T00:33:52.031Z,93.6
2017-08-15T00:33:55.397Z,93.6
2017-08-15T00:33:58.754Z,93.6
2017-08-15T00:34:01.782Z,93.6
2017-08-15T00:34:04.786Z,93.6
2017-08-15T00:34:07.467Z,93.6
2017-08-15T00:34:10.829Z,93.7
2017-08-15T00:34:14.192Z,93.7
2017-08-15T00:34:17.219Z,93.6
2017-08-15T00:34:20.232Z,93.7
2017-08-15T00:34:23.605Z,93.7
2017-08-15T00:34:26.982Z,93.7
2017-08-15T00:34:29.992Z,93.7
2017-08-15T00:34:33.023Z,93.7
2017-08-15T00:34:36.386Z,93.7
2017-08-15T00:34:39.744Z,93.6
2017-08-15T00:34:43.107Z,93.6
2017-08-15T00:34:46.475Z,93.7
2017-08-15T00:34:49.839Z,93.7
2017-08-15T00:34:53.198Z,93.6
2017-08-15T00:34:56.555Z,93.6
2017-08-15T00:34:59.924Z,93.6
2017-08-15T00:35:03.295Z,93.6
2017-08-15T00:35:06.323Z,93.6
2017-08-15T00:35:09.329Z,93.7
2017-08-15T00:35:12.691Z,93.7
2017-08-15T00:35:16.066Z,93.7
2017-08-15T00:35:19.432Z,93.7
2017-08-15T00:35:22.447Z,93.6
2017-08-15T00:35:25.815Z,93.7
2017-08-15T00:35:28.841Z,93.7
2017-08-15T00:35:32.206Z,93.7
2017-08-15T00:35:35.237Z,93.7
2017-08-15T00:35:38.598Z,93.7
2017-08-15T00:35:41.956Z,93.6
2017-08-15T00:35:45.322Z,93.7
2017-08-15T00:35:48.328Z,93.7
2017-08-15T00:35:51.357Z,93.7
2017-08-15T00:35:54.364Z,93.7
2017-08-15T00:35:57.718Z,93.7
2017-08-15T00:36:00.744Z,93.7
2017-08-15T00:36:04.112Z,93.7
2017-08-15T00:36:07.482Z,93.7
2017-08-15T00:36:10.840Z,93.7
2017-08-15T00:36:14.199Z,93.7
2017-08-15T00:36:17.557Z,93.6
2017-08-15T00:36:20.572Z,93.6
2017-08-15T00:36:23.936Z,93.6
2017-08-15T00:36:26.972Z,93.6
2017-08-15T00:36:29.999Z,93.6
2017-08-15T00:36:32.673Z,93.6
2017-08-15T00:36:35.699Z,93.6
2017-08-15T00:36:38.380Z,93.6
2017-08-15T00:36:41.385Z,93.6
2017-08-15T00:36:44.396Z,93.6
2017-08-15T00:36:47.757Z,93.7
2017-08-15T00:36:51.127Z,93.8
2017-08-15T00:36:54.133Z,93.8
2017-08-15T00:36:56.801Z,93.8
2017-08-15T00:37:00.161Z,93.8
2017-08-15T00:37:03.525Z,93.8
2017-08-15T00:37:06.543Z,93.8
2017-08-15T00:37:09.912Z,93.8
2017-08-15T00:37:13.292Z,93.8
2017-08-15T00:37:16.657Z,93.8
2017-08-15T00:37:19.673Z,93.8
2017-08-15T00:37:23.031Z,93.7
2017-08-15T00:37:25.704Z,93.8
2017-08-15T00:37:28.712Z,93.7
2017-08-15T00:37:32.079Z,93.7
2017-08-15T00:37:35.439Z,93.7
2017-08-15T00:37:38.802Z,93.7
2017-08-15T00:37:41.808Z,93.7
2017-08-15T00:37:45.171Z,93.7
2017-08-15T00:37:48.532Z,93.7
2017-08-15T00:37:51.891Z,93.8
2017-08-15T00:37:55.254Z,93.8
2017-08-15T00:37:58.615Z,93.7
2017-08-15T00:38:01.978Z,93.7
2017-08-15T00:38:05.337Z,93.7
2017-08-15T00:38:08.351Z,93.7
2017-08-15T00:38:11.717Z,93.7
2017-08-15T00:38:14.729Z,93.7
2017-08-15T00:38:18.098Z,93.7
2017-08-15T00:38:21.099Z,93.7
2017-08-15T00:38:24.126Z,93.7
2017-08-15T00:38:27.482Z,93.7
2017-08-15T00:38:30.848Z,93.6
2017-08-15T00:38:34.232Z,93.7
2017-08-15T00:38:36.912Z,93.7
2017-08-15T00:38:40.276Z,93.7
2017-08-15T00:38:43.644Z,93.7
2017-08-15T00:38:47.004Z,93.7
2017-08-15T00:38:50.362Z,93.7
2017-08-15T00:38:53.720Z,93.7
2017-08-15T00:38:56.753Z,93.6
2017-08-15T00:39:00.115Z,93.6
2017-08-15T00:39:03.146Z,93.6
2017-08-15T00:39:06.511Z,93.7
2017-08-15T00:39:09.887Z,93.7
2017-08-15T00:39:13.251Z,93.6
2017-08-15T00:39:16.259Z,93.6
2017-08-15T00:39:18.962Z,93.6
2017-08-15T00:39:22.323Z,93.7
2017-08-15T00:39:25.683Z,93.7
2017-08-15T00:39:28.358Z,93.8
2017-08-15T00:39:31.372Z,93.8
2017-08-15T00:39:34.393Z,93.7
2017-08-15T00:39:37.433Z,93.6
2017-08-15T00:39:40.798Z,93.6
2017-08-15T00:39:44.160Z,93.7
2017-08-15T00:39:47.187Z,93.7
2017-08-15T00:39:50.546Z,93.7
2017-08-15T00:39:53.911Z,93.7
2017-08-15T00:39:56.918Z,93.8
2017-08-15T00:40:00.276Z,93.8
2017-08-15T00:40:03.635Z,93.7
2017-08-15T00:40:06.919Z,93.7
2017-08-15T00:40:10.281Z,93.7
2017-08-15T00:40:13.285Z,93.7
2017-08-15T00:40:16.652Z,93.7
2017-08-15T00:40:20.013Z,93.7
2017-08-15T00:40:23.040Z,93.8
2017-08-15T00:40:26.069Z,93.8
2017-08-15T00:40:29.435Z,93.8
2017-08-15T00:40:32.799Z,93.8
2017-08-15T00:40:35.807Z,93.8
2017-08-15T00:40:38.808Z,93.8
2017-08-15T00:40:41.477Z,93.9
2017-08-15T00:40:44.514Z,93.9
2017-08-15T00:40:47.880Z,93.9
2017-08-15T00:40:50.912Z,93.9
2017-08-15T00:40:54.272Z,93.9
2017-08-15T00:40:57.631Z,93.9
2017-08-15T00:41:00.661Z,93.8
2017-08-15T00:41:03.672Z,93.8
2017-08-15T00:41:06.729Z,93.9
2017-08-15T00:41:09.735Z,93.9
2017-08-15T00:41:12.739Z,93.9
2017-08-15T00:41:16.106Z,93.9
2017-08-15T00:41:19.492Z,93.9
2017-08-15T00:41:22.172Z,93.8
2017-08-15T00:41:25.534Z,93.8
2017-08-15T00:41:28.901Z,93.8
2017-08-15T00:41:32.259Z,93.9
2017-08-15T00:41:35.624Z,93.9
2017-08-15T00:41:38.692Z,93.9
2017-08-15T00:41:42.055Z,93.9
2017-08-15T00:41:45.418Z,93.9
2017-08-15T00:41:48.779Z,93.9
2017-08-15T00:41:51.792Z,93.8
2017-08-15T00:41:54.801Z,93.8
2017-08-15T00:41:58.161Z,93.8
2017-08-15T00:42:01.192Z,93.9
2017-08-15T00:42:04.217Z,93.9
2017-08-15T00:42:07.229Z,94
2017-08-15T00:42:10.252Z,94
2017-08-15T00:42:13.618Z,94
2017-08-15T00:42:16.973Z,94
2017-08-15T00:42:20.341Z,94
2017-08-15T00:42:23.374Z,94
2017-08-15T00:42:26.736Z,94
2017-08-15T00:42:30.100Z,94
2017-08-15T00:42:33.122Z,94
2017-08-15T00:42:36.126Z,94
2017-08-15T00:42:39.132Z,94
2017-08-15T00:42:42.159Z,93.9
2017-08-15T00:42:45.165Z,94
2017-08-15T00:42:48.527Z,94
2017-08-15T00:42:51.886Z,94
2017-08-15T00:42:55.251Z,93.9
2017-08-15T00:42:58.615Z,93.9
2017-08-15T00:43:01.633Z,93.9
2017-08-15T00:43:04.641Z,93.9
2017-08-15T00:43:08.012Z,93.8
2017-08-15T00:43:11.019Z,93.8